sensor_id;sensor_type;location;lat;lon;timestamp;P1;P2;P0
80628;PMS5003;69983;42.370;-71.210;2024-01-06T00:01:16;83;71;
80628;PMS5003;69983;42.370;-71.210;2024-01-06T00:03:16;76;67;
80628;PMS5003;69983;42.370;-71.210;2024-01-06T00:05:16;75;62;
80628;PMS5003;69983;42.370;-71.210;2024-01-06T00:07:17;65;56;
80628;PMS5003;69983;42.370;-71.210;2024-01-06T00:09:17;74;57;
80628;PMS5003;69983;42.370;-71.210;2024-01-06T00:11:17;52;50;
80628;PMS5003;69983;42.370;-71.210;2024-01-06T00:13:18;60;50;
80628;PMS5003;69983;42.370;-71.210;2024-01-06T00:15:18;57;45;
80628;PMS5003;69983;42.370;-71.210;2024-01-06T00:17:18;42;36;
80628;PMS5003;69983;42.370;-71.210;2024-01-06T00:19:19;42;37;
80628;PMS5003;69983;42.370;-71.210;2024-01-06T00:21:19;46;40;
80628;PMS5003;69983;42.370;-71.210;2024-01-06T00:23:20;44;37;
80628;PMS5003;69983;42.370;-71.210;2024-01-06T00:25:21;43;33;
80628;PMS5003;69983;42.370;-71.210;2024-01-06T00:27:21;35;25;
80628;PMS5003;69983;42.370;-71.210;2024-01-06T00:29:22;33;29;
80628;PMS5003;69983;42.370;-71.210;2024-01-06T00:31:22;113;89;
80628;PMS5003;69983;42.370;-71.210;2024-01-06T00:33:22;193;157;
80628;PMS5003;69983;42.370;-71.210;2024-01-06T00:35:23;178;142;
80628;PMS5003;69983;42.370;-71.210;2024-01-06T00:37:23;153;129;
80628;PMS5003;69983;42.370;-71.210;2024-01-06T00:39:24;127;104;
80628;PMS5003;69983;42.370;-71.210;2024-01-06T00:41:24;127;90;
80628;PMS5003;69983;42.370;-71.210;2024-01-06T00:43:24;97;84;
80628;PMS5003;69983;42.370;-71.210;2024-01-06T00:45:26;91;74;
80628;PMS5003;69983;42.370;-71.210;2024-01-06T00:47:25;64;58;
80628;PMS5003;69983;42.370;-71.210;2024-01-06T00:49:26;55;48;
80628;PMS5003;69983;42.370;-71.210;2024-01-06T00:51:26;60;50;
80628;PMS5003;69983;42.370;-71.210;2024-01-06T00:53:26;53;47;
80628;PMS5003;69983;42.370;-71.210;2024-01-06T00:55:27;44;38;
80628;PMS5003;69983;42.370;-71.210;2024-01-06T00:57:27;39;34;
80628;PMS5003;69983;42.370;-71.210;2024-01-06T00:59:27;141;112;
80628;PMS5003;69983;42.370;-71.210;2024-01-06T01:01:28;134;106;
80628;PMS5003;69983;42.370;-71.210;2024-01-06T01:03:29;108;102;
80628;PMS5003;69983;42.370;-71.210;2024-01-06T01:05:30;99;82;
80628;PMS5003;69983;42.370;-71.210;2024-01-06T01:07:30;93;73;
80628;PMS5003;69983;42.370;-71.210;2024-01-06T01:09:30;66;58;
80628;PMS5003;69983;42.370;-71.210;2024-01-06T01:11:31;61;52;
80628;PMS5003;69983;42.370;-71.210;2024-01-06T01:13:32;58;49;
80628;PMS5003;69983;42.370;-71.210;2024-01-06T01:15:32;51;45;
80628;PMS5003;69983;42.370;-71.210;2024-01-06T01:17:32;47;39;
80628;PMS5003;69983;42.370;-71.210;2024-01-06T01:19:32;42;38;
80628;PMS5003;69983;42.370;-71.210;2024-01-06T01:21:32;110;86;
80628;PMS5003;69983;42.370;-71.210;2024-01-06T01:23:32;112;90;
80628;PMS5003;69983;42.370;-71.210;2024-01-06T01:25:33;104;82;
80628;PMS5003;69983;42.370;-71.210;2024-01-06T01:27:34;96;73;
80628;PMS5003;69983;42.370;-71.210;2024-01-06T01:29:35;107;87;
80628;PMS5003;69983;42.370;-71.210;2024-01-06T01:31:35;108;84;
80628;PMS5003;69983;42.370;-71.210;2024-01-06T01:33:35;92;69;
80628;PMS5003;69983;42.370;-71.210;2024-01-06T01:35:37;89;62;
80628;PMS5003;69983;42.370;-71.210;2024-01-06T01:37:36;79;63;
80628;PMS5003;69983;42.370;-71.210;2024-01-06T01:39:36;73;53;
80628;PMS5003;69983;42.370;-71.210;2024-01-06T01:41:37;62;51;
80628;PMS5003;69983;42.370;-71.210;2024-01-06T01:43:37;98;65;
80628;PMS5003;69983;42.370;-71.210;2024-01-06T01:45:39;78;58;
80628;PMS5003;69983;42.370;-71.210;2024-01-06T01:47:38;65;47;
80628;PMS5003;69983;42.370;-71.210;2024-01-06T01:49:38;48;37;
80628;PMS5003;69983;42.370;-71.210;2024-01-06T01:51:38;64;41;
80628;PMS5003;69983;42.370;-71.210;2024-01-06T01:53:39;88;52;
80628;PMS5003;69983;42.370;-71.210;2024-01-06T01:55:40;73;51;
80628;PMS5003;69983;42.370;-71.210;2024-01-06T01:57:39;88;56;
80628;PMS5003;69983;42.370;-71.210;2024-01-06T01:59:40;93;58;
80628;PMS5003;69983;42.370;-71.210;2024-01-06T02:01:40;73;50;
80628;PMS5003;69983;42.370;-71.210;2024-01-06T02:03:41;63;45;
80628;PMS5003;69983;42.370;-71.210;2024-01-06T02:05:42;66;39;
80628;PMS5003;69983;42.370;-71.210;2024-01-06T02:07:42;81;45;
80628;PMS5003;69983;42.370;-71.210;2024-01-06T02:09:42;74;44;
80628;PMS5003;69983;42.370;-71.210;2024-01-06T02:11:43;144;110;
80628;PMS5003;69983;42.370;-71.210;2024-01-06T02:13:43;178;134;
80628;PMS5003;69983;42.370;-71.210;2024-01-06T02:15:44;151;118;
80628;PMS5003;69983;42.370;-71.210;2024-01-06T02:17:44;162;110;
80628;PMS5003;69983;42.370;-71.210;2024-01-06T02:19:50;157;104;
80628;PMS5003;69983;42.370;-71.210;2024-01-06T02:21:47;129;89;
80628;PMS5003;69983;42.370;-71.210;2024-01-06T02:23:46;119;89;
80628;PMS5003;69983;42.370;-71.210;2024-01-06T02:25:46;111;80;
80628;PMS5003;69983;42.370;-71.210;2024-01-06T02:27:46;99;67;
80628;PMS5003;69983;42.370;-71.210;2024-01-06T02:29:46;87;63;
80628;PMS5003;69983;42.370;-71.210;2024-01-06T02:31:46;107;82;
80628;PMS5003;69983;42.370;-71.210;2024-01-06T02:33:52;164;120;
80628;PMS5003;69983;42.370;-71.210;2024-01-06T02:35:49;136;102;
80628;PMS5003;69983;42.370;-71.210;2024-01-06T02:37:47;158;115;
80628;PMS5003;69983;42.370;-71.210;2024-01-06T02:39:48;155;118;
80628;PMS5003;69983;42.370;-71.210;2024-01-06T02:41:49;137;90;
80628;PMS5003;69983;42.370;-71.210;2024-01-06T02:43:49;110;74;
80628;PMS5003;69983;42.370;-71.210;2024-01-06T02:45:50;88;62;
80628;PMS5003;69983;42.370;-71.210;2024-01-06T02:47:50;107;75;
80628;PMS5003;69983;42.370;-71.210;2024-01-06T02:49:50;84;57;
80628;PMS5003;69983;42.370;-71.210;2024-01-06T02:51:51;74;52;
80628;PMS5003;69983;42.370;-71.210;2024-01-06T02:53:51;73;52;
80628;PMS5003;69983;42.370;-71.210;2024-01-06T02:55:52;59;42;
80628;PMS5003;69983;42.370;-71.210;2024-01-06T02:57:53;43;33;
80628;PMS5003;69983;42.370;-71.210;2024-01-06T02:59:53;36;28;
80628;PMS5003;69983;42.370;-71.210;2024-01-06T03:01:53;35;25;
80628;PMS5003;69983;42.370;-71.210;2024-01-06T03:03:53;40;29;
80628;PMS5003;69983;42.370;-71.210;2024-01-06T03:05:54;36;24;
80628;PMS5003;69983;42.370;-71.210;2024-01-06T03:07:54;30;18;
80628;PMS5003;69983;42.370;-71.210;2024-01-06T03:09:54;21;17;
80628;PMS5003;69983;42.370;-71.210;2024-01-06T03:11:54;22;18;
80628;PMS5003;69983;42.370;-71.210;2024-01-06T03:13:55;25;16;
80628;PMS5003;69983;42.370;-71.210;2024-01-06T03:15:56;49;36;
80628;PMS5003;69983;42.370;-71.210;2024-01-06T03:17:56;53;39;
80628;PMS5003;69983;42.370;-71.210;2024-01-06T03:19:56;50;36;
80628;PMS5003;69983;42.370;-71.210;2024-01-06T03:21:57;32;27;
80628;PMS5003;69983;42.370;-71.210;2024-01-06T03:23:57;30;23;
80628;PMS5003;69983;42.370;-71.210;2024-01-06T03:26:01;42;29;
80628;PMS5003;69983;42.370;-71.210;2024-01-06T03:27:58;33;20;
80628;PMS5003;69983;42.370;-71.210;2024-01-06T03:29:59;52;31;
80628;PMS5003;69983;42.370;-71.210;2024-01-06T03:31:59;55;31;
80628;PMS5003;69983;42.370;-71.210;2024-01-06T03:33:59;69;42;
80628;PMS5003;69983;42.370;-71.210;2024-01-06T03:36:03;56;39;
80628;PMS5003;69983;42.370;-71.210;2024-01-06T03:38:00;39;26;
80628;PMS5003;69983;42.370;-71.210;2024-01-06T03:40:00;49;23;
80628;PMS5003;69983;42.370;-71.210;2024-01-06T03:42:00;26;17;
80628;PMS5003;69983;42.370;-71.210;2024-01-06T03:44:00;42;23;
80628;PMS5003;69983;42.370;-71.210;2024-01-06T03:46:01;82;61;
80628;PMS5003;69983;42.370;-71.210;2024-01-06T03:48:01;60;47;
80628;PMS5003;69983;42.370;-71.210;2024-01-06T03:50:01;50;36;
80628;PMS5003;69983;42.370;-71.210;2024-01-06T03:52:03;105;77;
80628;PMS5003;69983;42.370;-71.210;2024-01-06T03:54:03;102;81;
80628;PMS5003;69983;42.370;-71.210;2024-01-06T03:56:04;128;90;
80628;PMS5003;69983;42.370;-71.210;2024-01-06T03:58:04;112;76;
80628;PMS5003;69983;42.370;-71.210;2024-01-06T04:00:05;92;61;
80628;PMS5003;69983;42.370;-71.210;2024-01-06T04:02:05;127;90;
80628;PMS5003;69983;42.370;-71.210;2024-01-06T04:04:06;124;89;
80628;PMS5003;69983;42.370;-71.210;2024-01-06T04:06:08;99;75;
80628;PMS5003;69983;42.370;-71.210;2024-01-06T04:08:07;87;72;
80628;PMS5003;69983;42.370;-71.210;2024-01-06T04:10:08;75;66;
80628;PMS5003;69983;42.370;-71.210;2024-01-06T04:12:08;82;71;
80628;PMS5003;69983;42.370;-71.210;2024-01-06T04:14:08;83;67;
80628;PMS5003;69983;42.370;-71.210;2024-01-06T04:16:09;68;53;
80628;PMS5003;69983;42.370;-71.210;2024-01-06T04:18:09;64;49;
80628;PMS5003;69983;42.370;-71.210;2024-01-06T04:20:12;56;47;
80628;PMS5003;69983;42.370;-71.210;2024-01-06T04:22:10;110;91;
80628;PMS5003;69983;42.370;-71.210;2024-01-06T04:24:11;103;81;
80628;PMS5003;69983;42.370;-71.210;2024-01-06T04:26:12;103;84;
80628;PMS5003;69983;42.370;-71.210;2024-01-06T04:28:12;85;73;
80628;PMS5003;69983;42.370;-71.210;2024-01-06T04:30:18;80;68;
80628;PMS5003;69983;42.370;-71.210;2024-01-06T04:32:13;86;57;
80628;PMS5003;69983;42.370;-71.210;2024-01-06T04:34:14;55;46;
80628;PMS5003;69983;42.370;-71.210;2024-01-06T04:36:13;351;292;
80628;PMS5003;69983;42.370;-71.210;2024-01-06T04:38:14;194;166;
80628;PMS5003;69983;42.370;-71.210;2024-01-06T04:40:14;160;135;
80628;PMS5003;69983;42.370;-71.210;2024-01-06T04:42:15;120;104;
80628;PMS5003;69983;42.370;-71.210;2024-01-06T04:44:16;104;87;
80628;PMS5003;69983;42.370;-71.210;2024-01-06T04:46:16;81;71;
80628;PMS5003;69983;42.370;-71.210;2024-01-06T04:48:18;68;57;
80628;PMS5003;69983;42.370;-71.210;2024-01-06T04:50:21;67;55;
80628;PMS5003;69983;42.370;-71.210;2024-01-06T04:52:17;59;49;
80628;PMS5003;69983;42.370;-71.210;2024-01-06T04:54:17;41;39;
80628;PMS5003;69983;42.370;-71.210;2024-01-06T04:56:19;45;41;
80628;PMS5003;69983;42.370;-71.210;2024-01-06T04:58:18;182;161;
80628;PMS5003;69983;42.370;-71.210;2024-01-06T05:00:19;178;151;
80628;PMS5003;69983;42.370;-71.210;2024-01-06T05:02:19;162;137;
80628;PMS5003;69983;42.370;-71.210;2024-01-06T05:04:20;144;112;
80628;PMS5003;69983;42.370;-71.210;2024-01-06T05:06:20;124;103;
80628;PMS5003;69983;42.370;-71.210;2024-01-06T05:08:20;92;82;
80628;PMS5003;69983;42.370;-71.210;2024-01-06T05:10:21;101;84;
80628;PMS5003;69983;42.370;-71.210;2024-01-06T05:12:26;129;91;
80628;PMS5003;69983;42.370;-71.210;2024-01-06T05:14:22;87;73;
80628;PMS5003;69983;42.370;-71.210;2024-01-06T05:16:23;72;57;
80628;PMS5003;69983;42.370;-71.210;2024-01-06T05:18:23;88;68;
80628;PMS5003;69983;42.370;-71.210;2024-01-06T05:20:23;61;49;
80628;PMS5003;69983;42.370;-71.210;2024-01-06T05:22:24;47;37;
80628;PMS5003;69983;42.370;-71.210;2024-01-06T05:24:24;51;40;
80628;PMS5003;69983;42.370;-71.210;2024-01-06T05:26:25;45;38;
80628;PMS5003;69983;42.370;-71.210;2024-01-06T05:28:25;47;37;
80628;PMS5003;69983;42.370;-71.210;2024-01-06T05:30:26;106;80;
80628;PMS5003;69983;42.370;-71.210;2024-01-06T05:32:26;105;76;
80628;PMS5003;69983;42.370;-71.210;2024-01-06T05:34:27;93;71;
80628;PMS5003;69983;42.370;-71.210;2024-01-06T05:36:27;99;76;
80628;PMS5003;69983;42.370;-71.210;2024-01-06T05:38:27;112;74;
80628;PMS5003;69983;42.370;-71.210;2024-01-06T05:40:27;97;67;
80628;PMS5003;69983;42.370;-71.210;2024-01-06T05:42:28;114;75;
80628;PMS5003;69983;42.370;-71.210;2024-01-06T05:44:28;67;47;
80628;PMS5003;69983;42.370;-71.210;2024-01-06T05:46:28;78;46;
80628;PMS5003;69983;42.370;-71.210;2024-01-06T05:48:29;47;32;
80628;PMS5003;69983;42.370;-71.210;2024-01-06T05:50:30;47;34;
80628;PMS5003;69983;42.370;-71.210;2024-01-06T05:52:30;54;38;
80628;PMS5003;69983;42.370;-71.210;2024-01-06T05:54:30;40;28;
80628;PMS5003;69983;42.370;-71.210;2024-01-06T05:56:31;42;26;
80628;PMS5003;69983;42.370;-71.210;2024-01-06T05:58:31;28;19;
80628;PMS5003;69983;42.370;-71.210;2024-01-06T06:00:31;26;21;
80628;PMS5003;69983;42.370;-71.210;2024-01-06T06:02:31;28;16;
80628;PMS5003;69983;42.370;-71.210;2024-01-06T06:04:31;19;17;
80628;PMS5003;69983;42.370;-71.210;2024-01-06T06:06:32;21;12;
80628;PMS5003;69983;42.370;-71.210;2024-01-06T06:08:32;19;17;
80628;PMS5003;69983;42.370;-71.210;2024-01-06T06:10:33;27;18;
80628;PMS5003;69983;42.370;-71.210;2024-01-06T06:12:32;41;30;
80628;PMS5003;69983;42.370;-71.210;2024-01-06T06:14:33;41;22;
80628;PMS5003;69983;42.370;-71.210;2024-01-06T06:16:33;51;33;
80628;PMS5003;69983;42.370;-71.210;2024-01-06T06:18:34;54;31;
80628;PMS5003;69983;42.370;-71.210;2024-01-06T06:20:34;69;33;
80628;PMS5003;69983;42.370;-71.210;2024-01-06T06:22:34;38;28;
80628;PMS5003;69983;42.370;-71.210;2024-01-06T06:24:40;46;32;
80628;PMS5003;69983;42.370;-71.210;2024-01-06T06:26:36;47;26;
80628;PMS5003;69983;42.370;-71.210;2024-01-06T06:28:36;36;23;
80628;PMS5003;69983;42.370;-71.210;2024-01-06T06:30:37;30;21;
80628;PMS5003;69983;42.370;-71.210;2024-01-06T06:32:37;26;17;
80628;PMS5003;69983;42.370;-71.210;2024-01-06T06:34:37;29;20;
80628;PMS5003;69983;42.370;-71.210;2024-01-06T06:36:40;39;23;
80628;PMS5003;69983;42.370;-71.210;2024-01-06T06:38:38;29;17;
80628;PMS5003;69983;42.370;-71.210;2024-01-06T06:40:39;24;17;
80628;PMS5003;69983;42.370;-71.210;2024-01-06T06:42:39;35;16;
80628;PMS5003;69983;42.370;-71.210;2024-01-06T06:44:45;19;13;
80628;PMS5003;69983;42.370;-71.210;2024-01-06T06:46:39;20;9;
80628;PMS5003;69983;42.370;-71.210;2024-01-06T06:48:40;21;12;
80628;PMS5003;69983;42.370;-71.210;2024-01-06T06:50:41;18;10;
80628;PMS5003;69983;42.370;-71.210;2024-01-06T06:52:42;19;6;
80628;PMS5003;69983;42.370;-71.210;2024-01-06T06:54:46;8;4;
80628;PMS5003;69983;42.370;-71.210;2024-01-06T06:56:42;10;6;
80628;PMS5003;69983;42.370;-71.210;2024-01-06T06:58:42;8;6;
80628;PMS5003;69983;42.370;-71.210;2024-01-06T07:00:42;7;5;
80628;PMS5003;69983;42.370;-71.210;2024-01-06T07:02:43;7;3;
80628;PMS5003;69983;42.370;-71.210;2024-01-06T07:04:43;6;4;
80628;PMS5003;69983;42.370;-71.210;2024-01-06T07:06:43;7;4;
80628;PMS5003;69983;42.370;-71.210;2024-01-06T07:08:43;15;15;
80628;PMS5003;69983;42.370;-71.210;2024-01-06T07:10:44;12;10;
80628;PMS5003;69983;42.370;-71.210;2024-01-06T07:12:44;77;53;
80628;PMS5003;69983;42.370;-71.210;2024-01-06T07:14:45;89;59;
80628;PMS5003;69983;42.370;-71.210;2024-01-06T07:16:45;103;60;
80628;PMS5003;69983;42.370;-71.210;2024-01-06T07:18:45;88;48;
80628;PMS5003;69983;42.370;-71.210;2024-01-06T07:20:46;97;52;
80628;PMS5003;69983;42.370;-71.210;2024-01-06T07:22:46;84;49;
80628;PMS5003;69983;42.370;-71.210;2024-01-06T07:24:47;94;53;
80628;PMS5003;69983;42.370;-71.210;2024-01-06T07:26:47;88;53;
80628;PMS5003;69983;42.370;-71.210;2024-01-06T07:28:48;64;33;
80628;PMS5003;69983;42.370;-71.210;2024-01-06T07:30:48;53;38;
80628;PMS5003;69983;42.370;-71.210;2024-01-06T07:32:48;61;32;
80628;PMS5003;69983;42.370;-71.210;2024-01-06T07:34:48;50;22;
80628;PMS5003;69983;42.370;-71.210;2024-01-06T07:36:49;84;51;
80628;PMS5003;69983;42.370;-71.210;2024-01-06T07:38:49;44;31;
80628;PMS5003;69983;42.370;-71.210;2024-01-06T07:40:50;68;39;
80628;PMS5003;69983;42.370;-71.210;2024-01-06T07:42:50;60;31;
80628;PMS5003;69983;42.370;-71.210;2024-01-06T07:44:50;36;28;
80628;PMS5003;69983;42.370;-71.210;2024-01-06T07:46:51;51;31;
80628;PMS5003;69983;42.370;-71.210;2024-01-06T07:48:54;34;24;
80628;PMS5003;69983;42.370;-71.210;2024-01-06T07:50:52;25;15;
80628;PMS5003;69983;42.370;-71.210;2024-01-06T07:52:52;22;20;
80628;PMS5003;69983;42.370;-71.210;2024-01-06T07:54:53;49;20;
80628;PMS5003;69983;42.370;-71.210;2024-01-06T07:56:54;41;23;
80628;PMS5003;69983;42.370;-71.210;2024-01-06T07:58:53;39;22;
80628;PMS5003;69983;42.370;-71.210;2024-01-06T08:00:54;42;21;
80628;PMS5003;69983;42.370;-71.210;2024-01-06T08:02:54;35;26;
80628;PMS5003;69983;42.370;-71.210;2024-01-06T08:04:55;30;16;
80628;PMS5003;69983;42.370;-71.210;2024-01-06T08:06:56;21;13;
80628;PMS5003;69983;42.370;-71.210;2024-01-06T08:08:57;12;11;
80628;PMS5003;69983;42.370;-71.210;2024-01-06T08:10:56;29;11;
80628;PMS5003;69983;42.370;-71.210;2024-01-06T08:12:57;15;9;
80628;PMS5003;69983;42.370;-71.210;2024-01-06T08:14:57;18;7;
80628;PMS5003;69983;42.370;-71.210;2024-01-06T08:16:58;19;7;
80628;PMS5003;69983;42.370;-71.210;2024-01-06T08:18:58;11;5;
80628;PMS5003;69983;42.370;-71.210;2024-01-06T08:20:58;12;6;
80628;PMS5003;69983;42.370;-71.210;2024-01-06T08:22:58;12;9;
80628;PMS5003;69983;42.370;-71.210;2024-01-06T08:24:59;7;6;
80628;PMS5003;69983;42.370;-71.210;2024-01-06T08:27:00;10;6;
80628;PMS5003;69983;42.370;-71.210;2024-01-06T08:28:59;4;4;
80628;PMS5003;69983;42.370;-71.210;2024-01-06T08:30:59;8;3;
80628;PMS5003;69983;42.370;-71.210;2024-01-06T08:32:59;4;2;
80628;PMS5003;69983;42.370;-71.210;2024-01-06T08:34:59;4;0;
80628;PMS5003;69983;42.370;-71.210;2024-01-06T08:36:59;3;2;
80628;PMS5003;69983;42.370;-71.210;2024-01-06T08:39:05;7;2;
80628;PMS5003;69983;42.370;-71.210;2024-01-06T08:41:00;3;2;
80628;PMS5003;69983;42.370;-71.210;2024-01-06T08:43:01;158;142;
80628;PMS5003;69983;42.370;-71.210;2024-01-06T08:45:01;135;105;
80628;PMS5003;69983;42.370;-71.210;2024-01-06T08:47:02;77;68;
80628;PMS5003;69983;42.370;-71.210;2024-01-06T08:49:02;62;51;
80628;PMS5003;69983;42.370;-71.210;2024-01-06T08:51:03;52;47;
80628;PMS5003;69983;42.370;-71.210;2024-01-06T08:53:03;48;39;
80628;PMS5003;69983;42.370;-71.210;2024-01-06T08:55:04;33;29;
80628;PMS5003;69983;42.370;-71.210;2024-01-06T08:57:04;23;21;
80628;PMS5003;69983;42.370;-71.210;2024-01-06T08:59:05;26;24;
80628;PMS5003;69983;42.370;-71.210;2024-01-06T09:01:05;29;24;
80628;PMS5003;69983;42.370;-71.210;2024-01-06T09:03:06;27;19;
80628;PMS5003;69983;42.370;-71.210;2024-01-06T09:05:06;15;12;
80628;PMS5003;69983;42.370;-71.210;2024-01-06T09:07:06;22;10;
80628;PMS5003;69983;42.370;-71.210;2024-01-06T09:09:06;12;10;
80628;PMS5003;69983;42.370;-71.210;2024-01-06T09:11:06;13;10;
80628;PMS5003;69983;42.370;-71.210;2024-01-06T09:13:06;9;8;
80628;PMS5003;69983;42.370;-71.210;2024-01-06T09:15:07;10;8;
80628;PMS5003;69983;42.370;-71.210;2024-01-06T09:17:07;9;8;
80628;PMS5003;69983;42.370;-71.210;2024-01-06T09:19:07;7;5;
80628;PMS5003;69983;42.370;-71.210;2024-01-06T09:21:07;5;5;
80628;PMS5003;69983;42.370;-71.210;2024-01-06T09:23:07;8;7;
80628;PMS5003;69983;42.370;-71.210;2024-01-06T09:25:07;6;5;
80628;PMS5003;69983;42.370;-71.210;2024-01-06T09:27:08;6;6;
80628;PMS5003;69983;42.370;-71.210;2024-01-06T09:29:07;4;3;
80628;PMS5003;69983;42.370;-71.210;2024-01-06T09:31:07;4;4;
80628;PMS5003;69983;42.370;-71.210;2024-01-06T09:33:07;3;3;
80628;PMS5003;69983;42.370;-71.210;2024-01-06T09:35:07;3;3;
80628;PMS5003;69983;42.370;-71.210;2024-01-06T09:37:07;3;3;
80628;PMS5003;69983;42.370;-71.210;2024-01-06T09:39:07;2;2;
80628;PMS5003;69983;42.370;-71.210;2024-01-06T09:41:07;3;2;
80628;PMS5003;69983;42.370;-71.210;2024-01-06T09:43:07;2;2;
80628;PMS5003;69983;42.370;-71.210;2024-01-06T09:45:08;4;3;
80628;PMS5003;69983;42.370;-71.210;2024-01-06T09:47:08;1;1;
80628;PMS5003;69983;42.370;-71.210;2024-01-06T09:49:08;3;3;
80628;PMS5003;69983;42.370;-71.210;2024-01-06T09:51:09;0;0;
80628;PMS5003;69983;42.370;-71.210;2024-01-06T09:53:09;1;1;
80628;PMS5003;69983;42.370;-71.210;2024-01-06T09:55:09;1;1;
80628;PMS5003;69983;42.370;-71.210;2024-01-06T09:57:08;2;0;
80628;PMS5003;69983;42.370;-71.210;2024-01-06T09:59:08;1;1;
80628;PMS5003;69983;42.370;-71.210;2024-01-06T10:01:13;3;1;
80628;PMS5003;69983;42.370;-71.210;2024-01-06T10:03:08;0;0;
80628;PMS5003;69983;42.370;-71.210;2024-01-06T10:05:08;1;1;
80628;PMS5003;69983;42.370;-71.210;2024-01-06T10:07:09;1;1;
80628;PMS5003;69983;42.370;-71.210;2024-01-06T10:09:10;1;1;
80628;PMS5003;69983;42.370;-71.210;2024-01-06T10:11:09;0;0;
80628;PMS5003;69983;42.370;-71.210;2024-01-06T10:13:09;1;1;
80628;PMS5003;69983;42.370;-71.210;2024-01-06T10:15:09;0;0;
80628;PMS5003;69983;42.370;-71.210;2024-01-06T10:17:09;1;0;
80628;PMS5003;69983;42.370;-71.210;2024-01-06T10:19:09;0;0;
80628;PMS5003;69983;42.370;-71.210;2024-01-06T10:21:09;0;0;
80628;PMS5003;69983;42.370;-71.210;2024-01-06T10:23:10;0;0;
80628;PMS5003;69983;42.370;-71.210;2024-01-06T10:25:14;1;0;
80628;PMS5003;69983;42.370;-71.210;2024-01-06T10:27:09;1;1;
80628;PMS5003;69983;42.370;-71.210;2024-01-06T10:29:09;1;1;
80628;PMS5003;69983;42.370;-71.210;2024-01-06T10:31:09;0;0;
80628;PMS5003;69983;42.370;-71.210;2024-01-06T10:33:09;0;0;
80628;PMS5003;69983;42.370;-71.210;2024-01-06T10:35:09;0;0;
80628;PMS5003;69983;42.370;-71.210;2024-01-06T10:37:10;0;0;
80628;PMS5003;69983;42.370;-71.210;2024-01-06T10:39:10;0;0;
80628;PMS5003;69983;42.370;-71.210;2024-01-06T10:41:10;0;0;
80628;PMS5003;69983;42.370;-71.210;2024-01-06T10:43:10;0;0;
80628;PMS5003;69983;42.370;-71.210;2024-01-06T10:45:10;0;0;
80628;PMS5003;69983;42.370;-71.210;2024-01-06T10:47:10;0;0;
80628;PMS5003;69983;42.370;-71.210;2024-01-06T10:49:10;0;0;
80628;PMS5003;69983;42.370;-71.210;2024-01-06T10:51:10;0;0;
80628;PMS5003;69983;42.370;-71.210;2024-01-06T10:53:10;0;0;
80628;PMS5003;69983;42.370;-71.210;2024-01-06T10:55:10;0;0;
80628;PMS5003;69983;42.370;-71.210;2024-01-06T10:57:10;0;0;
80628;PMS5003;69983;42.370;-71.210;2024-01-06T10:59:12;0;0;
80628;PMS5003;69983;42.370;-71.210;2024-01-06T11:01:10;0;0;
80628;PMS5003;69983;42.370;-71.210;2024-01-06T11:03:10;0;0;
80628;PMS5003;69983;42.370;-71.210;2024-01-06T11:05:11;0;0;
80628;PMS5003;69983;42.370;-71.210;2024-01-06T11:07:11;0;0;
80628;PMS5003;69983;42.370;-71.210;2024-01-06T11:09:13;0;0;
80628;PMS5003;69983;42.370;-71.210;2024-01-06T11:11:11;0;0;
80628;PMS5003;69983;42.370;-71.210;2024-01-06T11:13:12;1;1;
80628;PMS5003;69983;42.370;-71.210;2024-01-06T11:15:11;0;0;
80628;PMS5003;69983;42.370;-71.210;2024-01-06T11:17:11;0;0;
80628;PMS5003;69983;42.370;-71.210;2024-01-06T11:21:15;0;0;
80628;PMS5003;69983;42.370;-71.210;2024-01-06T11:23:19;0;0;
80628;PMS5003;69983;42.370;-71.210;2024-01-06T11:25:13;0;0;
80628;PMS5003;69983;42.370;-71.210;2024-01-06T11:27:11;0;0;
80628;PMS5003;69983;42.370;-71.210;2024-01-06T11:29:11;0;0;
80628;PMS5003;69983;42.370;-71.210;2024-01-06T11:31:11;0;0;
80628;PMS5003;69983;42.370;-71.210;2024-01-06T11:33:11;0;0;
80628;PMS5003;69983;42.370;-71.210;2024-01-06T11:35:12;0;0;
80628;PMS5003;69983;42.370;-71.210;2024-01-06T11:37:11;0;0;
80628;PMS5003;69983;42.370;-71.210;2024-01-06T11:41:44;0;0;
80628;PMS5003;69983;42.370;-71.210;2024-01-06T11:43:12;0;0;
80628;PMS5003;69983;42.370;-71.210;2024-01-06T11:45:12;0;0;
80628;PMS5003;69983;42.370;-71.210;2024-01-06T11:47:12;0;0;
80628;PMS5003;69983;42.370;-71.210;2024-01-06T11:49:12;0;0;
80628;PMS5003;69983;42.370;-71.210;2024-01-06T11:51:12;0;0;
80628;PMS5003;69983;42.370;-71.210;2024-01-06T11:53:12;0;0;
80628;PMS5003;69983;42.370;-71.210;2024-01-06T11:55:12;1;0;
80628;PMS5003;69983;42.370;-71.210;2024-01-06T11:57:12;0;0;
80628;PMS5003;69983;42.370;-71.210;2024-01-06T11:59:12;0;0;
80628;PMS5003;69983;42.370;-71.210;2024-01-06T12:01:12;0;0;
80628;PMS5003;69983;42.370;-71.210;2024-01-06T12:03:15;0;0;
80628;PMS5003;69983;42.370;-71.210;2024-01-06T12:05:13;0;0;
80628;PMS5003;69983;42.370;-71.210;2024-01-06T12:07:13;0;0;
80628;PMS5003;69983;42.370;-71.210;2024-01-06T12:09:13;0;0;
80628;PMS5003;69983;42.370;-71.210;2024-01-06T12:11:13;0;0;
80628;PMS5003;69983;42.370;-71.210;2024-01-06T12:13:13;0;0;
80628;PMS5003;69983;42.370;-71.210;2024-01-06T12:15:13;0;0;
80628;PMS5003;69983;42.370;-71.210;2024-01-06T12:17:13;0;0;
80628;PMS5003;69983;42.370;-71.210;2024-01-06T12:19:13;0;0;
80628;PMS5003;69983;42.370;-71.210;2024-01-06T12:21:13;0;0;
80628;PMS5003;69983;42.370;-71.210;2024-01-06T12:23:23;0;0;
80628;PMS5003;69983;42.370;-71.210;2024-01-06T12:25:14;0;0;
80628;PMS5003;69983;42.370;-71.210;2024-01-06T12:27:13;0;0;
80628;PMS5003;69983;42.370;-71.210;2024-01-06T12:29:13;0;0;
80628;PMS5003;69983;42.370;-71.210;2024-01-06T12:31:13;0;0;
80628;PMS5003;69983;42.370;-71.210;2024-01-06T12:33:14;0;0;
80628;PMS5003;69983;42.370;-71.210;2024-01-06T12:35:14;0;0;
80628;PMS5003;69983;42.370;-71.210;2024-01-06T12:37:14;0;0;
80628;PMS5003;69983;42.370;-71.210;2024-01-06T12:39:14;0;0;
80628;PMS5003;69983;42.370;-71.210;2024-01-06T12:41:14;0;0;
80628;PMS5003;69983;42.370;-71.210;2024-01-06T12:43:14;0;0;
80628;PMS5003;69983;42.370;-71.210;2024-01-06T12:45:14;0;0;
80628;PMS5003;69983;42.370;-71.210;2024-01-06T12:47:14;0;0;
80628;PMS5003;69983;42.370;-71.210;2024-01-06T12:49:14;0;0;
80628;PMS5003;69983;42.370;-71.210;2024-01-06T12:51:14;0;0;
80628;PMS5003;69983;42.370;-71.210;2024-01-06T12:53:14;0;0;
80628;PMS5003;69983;42.370;-71.210;2024-01-06T12:55:14;0;0;
80628;PMS5003;69983;42.370;-71.210;2024-01-06T12:57:14;0;0;
80628;PMS5003;69983;42.370;-71.210;2024-01-06T12:59:14;0;0;
80628;PMS5003;69983;42.370;-71.210;2024-01-06T13:01:19;0;0;
80628;PMS5003;69983;42.370;-71.210;2024-01-06T13:03:15;0;0;